Time;durP1;ratioP1;P1;durP2;ratioP2;P2;SDS_P1;SDS_P2;PMS_P1;PMS_P2;Temp;Humidity;BMP_temperature;BMP_pressure;BME280_temperature;BME280_humidity;BME280_pressure;Samples;Min_cycle;Max_cycle;Signal;HPM_P1;HPM_P2
2020/12/19 00:00:29;;;;;;;9.35;5.78;;;;;;;7.30;90.26;101245.22;10370171;28;20052;-77
2020/12/19 00:05:30;;;;;;;12.68;6.45;;;;;;;7.43;90.55;101264.91;10369177;28;20041;-77
2020/12/19 00:10:30;;;;;;;10.02;5.97;;;;;;;7.67;90.33;101280.41;10388604;28;20675;-76
2020/12/19 00:15:31;;;;;;;10.55;6.05;;;;;;;7.28;91.23;101247.44;10387198;28;20034;-76
2020/12/19 00:20:31;;;;;;;12.43;5.82;;;;;;;7.46;91.13;101270.44;10403456;28;20037;-76
2020/12/19 00:25:32;;;;;;;11.68;6.50;;;;;;;7.13;91.70;101230.78;10401466;28;20944;-76
2020/12/19 00:30:32;;;;;;;8.73;6.05;;;;;;;7.47;91.64;101277.38;10402466;28;20048;-78
2020/12/19 00:35:33;;;;;;;11.80;7.05;;;;;;;7.38;90.97;101252.44;10399314;28;20099;-78
2020/12/19 00:40:33;;;;;;;10.68;6.35;;;;;;;7.24;91.15;101216.94;10402692;28;20710;-77
2020/12/19 00:45:34;;;;;;;11.32;7.03;;;;;;;7.09;91.13;101202.97;10407237;28;20037;-77
2020/12/19 00:50:36;;;;;;;11.98;6.90;;;;;;;7.22;90.77;101200.34;10405424;28;20080;-77
2020/12/19 00:55:37;;;;;;;11.48;7.38;;;;;;;7.15;91.39;101207.03;10389478;28;20132;-77
2020/12/19 01:00:39;;;;;;;;;;;;;;;7.40;91.20;101229.47;10398716;28;20076;-76
2020/12/19 01:05:40;;;;;;;10.23;6.88;;;;;;;6.67;91.44;101121.50;10384955;28;20265;-79
2020/12/19 01:10:40;;;;;;;11.70;7.05;;;;;;;7.16;91.97;101211.28;10339750;28;20308;-76
2020/12/19 01:15:41;;;;;;;10.55;7.28;;;;;;;7.05;91.70;101196.66;10351540;28;20085;-76
2020/12/19 01:20:41;;;;;;;10.95;6.93;;;;;;;6.89;92.25;101182.22;10346518;28;20045;-76
2020/12/19 01:25:42;;;;;;;11.32;7.47;;;;;;;6.99;92.76;101208.72;10358443;28;20049;-76
2020/12/19 01:30:42;;;;;;;11.88;7.75;;;;;;;6.83;93.31;101188.91;10365211;28;20029;-76
2020/12/19 01:35:43;;;;;;;13.27;7.93;;;;;;;6.63;93.18;101169.72;10360475;28;20045;-76
2020/12/19 01:40:56;;;;;;;13.75;7.88;;;;;;;6.54;93.20;101166.28;10361856;28;20045;-76
2020/12/19 01:45:58;;;;;;;11.40;7.88;;;;;;;6.84;93.83;101203.91;10325539;28;20042;-75
2020/12/19 01:50:59;;;;;;;12.60;7.27;;;;;;;6.87;94.24;101211.34;10352453;28;20041;-76
2020/12/19 01:55:59;;;;;;;11.25;7.70;;;;;;;6.45;94.70;101163.63;10345176;28;20049;-75
2020/12/19 02:01:02;;;;;;;14.10;8.23;;;;;;;6.60;94.61;101191.84;10341595;28;20116;-76
2020/12/19 02:06:04;;;;;;;12.77;7.90;;;;;;;6.43;95.23;101170.44;10346440;28;20042;-76
2020/12/19 02:11:05;;;;;;;13.57;8.57;;;;;;;6.45;95.37;101173.59;10350826;28;20622;-76
2020/12/19 02:16:06;;;;;;;13.65;8.48;;;;;;;6.57;96.07;101185.22;10382028;28;20307;-76
2020/12/19 02:21:06;;;;;;;14.63;8.88;;;;;;;5.97;95.63;101091.50;10374364;28;20152;-76
2020/12/19 02:26:07;;;;;;;13.65;8.68;;;;;;;6.47;95.47;101149.91;10395723;28;20037;-76
2020/12/19 02:31:07;;;;;;;14.05;8.45;;;;;;;6.27;95.63;101125.31;10393081;28;20072;-76
2020/12/19 02:36:08;;;;;;;14.93;8.35;;;;;;;5.99;95.70;101086.59;10380012;28;20649;-76
2020/12/19 02:41:08;;;;;;;17.98;9.63;;;;;;;6.47;95.68;101155.28;10371556;28;20033;-76
2020/12/19 02:46:09;;;;;;;15.70;9.10;;;;;;;6.43;96.09;101165.06;10404567;28;20045;-77
2020/12/19 02:51:09;;;;;;;13.60;8.45;;;;;;;6.23;96.18;101119.03;10409084;28;20065;-76
2020/12/19 02:56:10;;;;;;;13.43;8.95;;;;;;;6.15;95.97;101095.69;10405604;28;20124;-76
2020/12/19 03:01:10;;;;;;;12.15;8.60;;;;;;;6.47;96.33;101139.16;10405010;28;20409;-77
2020/12/19 03:06:11;;;;;;;13.23;8.98;;;;;;;6.20;96.22;101090.16;10387779;28;20389;-77
2020/12/19 03:11:11;;;;;;;13.43;9.32;;;;;;;6.34;95.93;101109.50;10392025;28;20038;-76
2020/12/19 03:16:12;;;;;;;12.90;9.15;;;;;;;6.49;96.52;101128.84;10388025;28;20053;-76
2020/12/19 03:21:12;;;;;;;12.93;9.23;;;;;;;6.43;95.58;101106.00;10405904;28;20037;-77
2020/12/19 03:26:13;;;;;;;12.88;8.15;;;;;;;6.00;95.55;101034.53;10409150;28;20064;-77
2020/12/19 03:31:13;;;;;;;12.93;8.52;;;;;;;6.07;95.55;101034.81;10393785;28;20042;-77
2020/12/19 03:36:14;;;;;;;14.07;8.25;;;;;;;6.31;94.98;101069.88;10405154;28;20048;-77
2020/12/19 03:41:14;;;;;;;13.50;8.95;;;;;;;6.38;95.15;101076.66;10393120;28;20037;-77
2020/12/19 03:46:16;;;;;;;12.77;9.10;;;;;;;6.33;94.83;101064.97;10384165;28;20053;-77
2020/12/19 03:51:16;;;;;;;15.50;8.85;;;;;;;6.69;94.98;101103.94;10405245;28;20839;-77
2020/12/19 03:56:16;;;;;;;13.88;9.85;;;;;;;6.43;94.25;101063.03;10408254;28;20048;-76
2020/12/19 04:01:17;;;;;;;14.15;8.32;;;;;;;6.72;94.07;101092.53;10409000;28;20081;-77
2020/12/19 04:06:17;;;;;;;12.45;8.93;;;;;;;6.64;94.12;101079.97;10372224;28;20049;-76
2020/12/19 04:11:18;;;;;;;10.73;8.30;;;;;;;6.72;94.15;101081.78;10398008;28;20138;-76
2020/12/19 04:16:18;;;;;;;14.85;8.05;;;;;;;6.57;93.96;101042.09;10406554;28;20498;-76
2020/12/19 04:21:19;;;;;;;15.95;7.80;;;;;;;6.78;93.64;101069.75;10408798;28;20732;-76
2020/12/19 04:26:19;;;;;;;10.98;7.15;;;;;;;6.80;93.77;101049.81;10387550;28;20049;-76
2020/12/19 04:31:20;;;;;;;9.77;6.68;;;;;;;6.65;92.57;101010.91;10374625;28;20046;-75
2020/12/19 04:36:20;;;;;;;10.52;6.78;;;;;;;7.04;92.34;101049.94;10404737;28;20080;-76
2020/12/19 04:41:21;;;;;;;9.55;6.70;;;;;;;6.55;92.31;100963.72;10388634;28;20044;-76
2020/12/19 04:46:22;;;;;;;9.07;6.13;;;;;;;6.93;91.66;101003.06;10367685;28;20494;-76
2020/12/19 04:51:23;;;;;;;9.18;6.15;;;;;;;7.25;90.90;101033.00;10391511;28;20049;-76
2020/12/19 04:56:23;;;;;;;9.35;6.32;;;;;;;7.17;89.31;100995.13;10404345;28;20871;-77
2020/12/19 05:01:25;;;;;;;10.03;6.10;;;;;;;7.49;89.31;101030.34;10397425;28;20049;-77
2020/12/19 05:06:28;;;;;;;13.48;5.35;;;;;;;7.48;88.65;101025.31;10383950;28;20064;-77
2020/12/19 05:11:28;;;;;;;;;;;;;;;7.72;87.35;101019.19;10390134;28;20387;-77
2020/12/19 05:16:31;;;;;;;9.50;5.38;;;;;;;7.19;88.01;100971.34;10394125;28;19929;-76
2020/12/19 05:21:43;;;;;;;9.35;5.82;;;;;;;7.25;88.10;100979.22;10391336;28;20453;-76
2020/12/19 05:26:44;;;;;;;10.00;6.22;;;;;;;7.68;87.51;101012.91;10381845;28;20573;-75
2020/12/19 05:31:50;;;;;;;11.82;6.50;;;;;;;7.69;88.07;101006.41;10409557;28;20041;-80
2020/12/19 05:36:54;;;;;;;9.90;6.10;;;;;;;7.86;87.80;101025.03;10381229;28;20136;-79
2020/12/19 05:41:57;;;;;;;9.65;6.38;;;;;;;7.81;88.11;101006.44;10354599;28;20045;-75
2020/12/19 05:46:58;;;;;;;10.73;6.57;;;;;;;7.89;88.73;100994.75;10394060;28;20041;-74
2020/12/19 05:51:59;;;;;;;11.63;6.88;;;;;;;7.93;89.03;100998.34;10361539;28;20046;-74
2020/12/19 05:57:00;;;;;;;18.00;7.50;;;;;;;7.91;89.50;100989.81;10370468;28;20056;-74
2020/12/19 06:02:02;;;;;;;11.88;6.90;;;;;;;8.02;89.85;101004.41;10358473;28;20755;-74
2020/12/19 06:07:03;;;;;;;13.93;6.65;;;;;;;8.06;89.89;100996.41;10366682;28;20049;-74
2020/12/19 06:12:09;;;;;;;10.15;7.57;;;;;;;8.18;89.93;100987.53;10366167;28;20513;-75
2020/12/19 06:17:15;;;;;;;14.90;8.82;;;;;;;8.27;90.03;100980.13;10376544;28;20111;-75
2020/12/19 06:22:15;;;;;;;13.05;7.28;;;;;;;7.85;90.26;100926.56;10390465;28;20048;-75
2020/12/19 06:27:24;;;;;;;14.45;8.05;;;;;;;8.24;90.75;100981.59;10388999;28;20678;-75
2020/12/19 06:32:27;;;;;;;13.68;8.75;;;;;;;8.22;90.78;100983.06;10401907;28;20045;-75
2020/12/19 06:37:28;;;;;;;;;;;;;;;8.26;91.74;100984.72;10404592;28;20042;-75
2020/12/19 06:42:28;;;;;;;14.73;9.38;;;;;;;7.42;91.85;100849.94;10408314;28;19977;-76
2020/12/19 06:47:30;;;;;;;15.02;9.18;;;;;;;7.95;92.19;100915.34;10403574;28;20379;-75
2020/12/19 06:52:31;;;;;;;13.43;9.35;;;;;;;8.32;92.34;100952.94;10401005;28;20060;-75
2020/12/19 06:57:31;;;;;;;14.27;8.75;;;;;;;8.23;91.75;100936.16;10382500;28;20049;-75
2020/12/19 07:02:47;;;;;;;19.90;9.18;;;;;;;8.25;91.69;100912.34;10403332;28;20076;-75
2020/12/19 07:07:48;;;;;;;15.98;8.30;;;;;;;8.35;91.43;100919.97;10393716;28;20333;-75
2020/12/19 07:12:51;;;;;;;13.02;8.18;;;;;;;7.94;91.20;100865.31;10415071;28;20037;-76
2020/12/19 07:17:52;;;;;;;13.88;8.85;;;;;;;8.30;91.68;100920.22;10401271;28;20033;-75
2020/12/19 07:22:52;;;;;;;14.98;9.05;;;;;;;8.63;91.57;100955.03;10402300;28;20496;-75
2020/12/19 07:27:55;;;;;;;11.63;7.97;;;;;;;8.37;91.49;100888.09;10403967;28;20051;-75
2020/12/19 07:32:55;;;;;;;;;;;;;;;8.77;91.21;100953.84;10409001;28;20045;-76
2020/12/19 07:37:56;;;;;;;15.15;8.93;;;;;;;8.73;90.54;100924.13;10379290;28;19920;-75
2020/12/19 07:43:03;;;;;;;14.18;8.88;;;;;;;8.93;89.85;100959.28;10392575;28;20064;-76
2020/12/19 07:48:05;;;;;;;12.93;7.50;;;;;;;8.80;89.69;100910.81;10373090;28;20057;-75
2020/12/19 07:53:07;;;;;;;12.10;7.00;;;;;;;9.07;89.11;100951.56;10379381;28;20307;-75
2020/12/19 07:58:07;;;;;;;15.17;7.87;;;;;;;9.12;88.70;100959.41;10389763;28;20366;-77
2020/12/19 08:03:17;;;;;;;12.30;7.15;;;;;;;9.21;88.22;100951.94;10409070;28;20042;-75
2020/12/19 08:08:17;;;;;;;12.07;8.07;;;;;;;9.29;88.48;100961.78;10392760;28;20047;-75
2020/12/19 08:13:18;;;;;;;14.20;7.43;;;;;;;9.06;88.26;100917.66;10404334;28;20064;-75
2020/12/19 08:18:18;;;;;;;12.82;7.55;;;;;;;9.20;87.42;100907.22;10403970;28;20391;-75
2020/12/19 08:23:19;;;;;;;11.93;6.57;;;;;;;9.48;87.03;100938.72;10353325;28;20160;-76
2020/12/19 08:28:24;;;;;;;12.10;6.45;;;;;;;9.65;86.15;100949.16;10406212;28;20045;-75
2020/12/19 08:33:26;;;;;;;9.95;6.68;;;;;;;9.47;85.48;100888.56;10381448;28;20043;-75
2020/12/19 08:38:29;;;;;;;8.90;5.80;;;;;;;9.85;84.54;100903.31;10409592;28;20067;-75
2020/12/19 08:43:32;;;;;;;11.68;5.43;;;;;;;10.12;84.45;100923.97;10386944;28;20650;-75
2020/12/19 08:48:32;;;;;;;10.90;5.75;;;;;;;10.24;83.69;100920.34;10385811;28;20107;-76
2020/12/19 08:53:33;;;;;;;13.00;5.65;;;;;;;10.38;83.34;100911.78;10389496;28;20135;-76
2020/12/19 08:58:33;;;;;;;10.27;4.95;;;;;;;10.34;82.92;100924.44;10408534;28;20041;-76
2020/12/19 09:03:34;;;;;;;8.85;4.75;;;;;;;10.38;82.49;100922.59;10392255;28;20440;-76
2020/12/19 09:08:38;;;;;;;10.32;4.75;;;;;;;10.43;81.86;100927.72;10409194;28;20409;-76
2020/12/19 09:13:41;;;;;;;10.38;5.07;;;;;;;10.37;81.56;100923.72;10402340;28;20099;-76
2020/12/19 09:18:45;;;;;;;13.65;4.90;;;;;;;10.45;80.91;100922.75;10401155;28;20078;-76
2020/12/19 09:23:45;;;;;;;11.95;4.40;;;;;;;10.51;80.63;100945.66;10389552;28;20060;-76
2020/12/19 09:28:46;;;;;;;8.73;5.18;;;;;;;10.18;79.75;100872.38;10400372;28;20127;-76
2020/12/19 09:33:46;;;;;;;10.50;6.05;;;;;;;10.68;79.88;100938.25;10381691;28;20128;-76
2020/12/19 09:38:46;;;;;;;8.85;4.40;;;;;;;10.51;78.91;100890.78;10404560;28;20056;-76
2020/12/19 09:43:47;;;;;;;7.38;3.75;;;;;;;10.69;79.36;100929.00;10387671;28;20787;-76
2020/12/19 09:48:47;;;;;;;9.02;4.10;;;;;;;10.51;78.43;100880.78;10387376;28;20037;-76
2020/12/19 09:53:48;;;;;;;5.90;3.33;;;;;;;10.79;78.42;100923.78;10404853;28;20064;-76
2020/12/19 09:58:56;;;;;;;7.03;3.70;;;;;;;10.49;77.66;100861.44;10374711;28;20410;-75
2020/12/19 10:03:56;;;;;;;8.50;4.35;;;;;;;10.98;77.47;100925.69;10403648;28;20041;-76
2020/12/19 10:08:57;;;;;;;7.93;3.90;;;;;;;10.94;76.83;100919.41;10391765;28;20053;-74
2020/12/19 10:13:57;;;;;;;8.23;4.18;;;;;;;10.99;76.83;100911.00;10406063;28;20087;-75
2020/12/19 10:19:00;;;;;;;8.85;3.95;;;;;;;11.16;76.15;100946.84;10394816;28;20477;-77
2020/12/19 10:24:00;;;;;;;;;;;;;;;11.14;76.59;100932.88;10358733;28;20041;-74
2020/12/19 10:29:01;;;;;;;6.13;3.53;;;;;;;11.02;76.67;100941.19;10390056;28;19925;-77
2020/12/19 10:34:01;;;;;;;5.15;2.80;;;;;;;11.08;76.21;100966.81;10404264;28;20788;-75
2020/12/19 10:39:03;;;;;;;7.22;3.10;;;;;;;11.10;75.91;100948.28;10384089;28;20061;-74
2020/12/19 10:44:05;;;;;;;5.18;3.00;;;;;;;10.92;76.72;100948.75;10392602;28;20049;-74
2020/12/19 10:49:06;;;;;;;;;;;;;;;10.98;76.99;100963.56;10410986;28;20160;-74
2020/12/19 10:54:06;;;;;;;5.43;2.73;;;;;;;10.83;77.38;100956.28;10396836;28;19917;-74
2020/12/19 10:59:09;;;;;;;3.92;2.28;;;;;;;10.50;78.19;100917.06;10406466;28;20280;-74
2020/12/19 11:04:09;;;;;;;;;;;;;;;10.75;78.51;100954.59;10411140;28;20044;-74
2020/12/19 11:09:11;;;;;;;7.40;3.27;;;;;;;10.57;79.86;100938.81;10414628;28;20283;-74
2020/12/19 11:14:11;;;;;;;8.43;3.20;;;;;;;10.38;81.32;100952.31;10414558;28;20288;-78
2020/12/19 11:19:14;;;;;;;6.28;3.28;;;;;;;10.39;83.80;100953.88;10407404;28;20053;-79
2020/12/19 11:24:15;;;;;;;10.10;2.90;;;;;;;10.46;83.10;100953.25;10372482;28;20038;-81
2020/12/19 11:29:15;;;;;;;5.40;2.70;;;;;;;10.09;83.49;100897.69;10369074;28;20046;-80
2020/12/19 11:34:16;;;;;;;6.50;2.90;;;;;;;10.39;83.74;100959.28;10378343;28;20064;-80
2020/12/19 11:39:16;;;;;;;6.93;3.08;;;;;;;10.41;84.90;100957.00;10362256;28;20112;-77
2020/12/19 11:44:19;;;;;;;7.00;3.30;;;;;;;10.26;87.56;100960.53;10394532;28;20414;-77
2020/12/19 11:49:20;;;;;;;9.68;4.43;;;;;;;10.13;88.81;100947.13;10382422;28;20137;-79
2020/12/19 11:54:32;;;;;;;;;;;;;;;;;;;;;
2020/12/19 12:00:03;;;;;;;;;;;;;;;;;;;;;
2020/12/19 12:05:13;;;;;;;7.68;4.00;;;;;;;10.02;90.00;100924.53;10391917;28;20512;-76
2020/12/19 12:10:13;;;;;;;8.27;3.20;;;;;;;9.92;90.70;100914.25;10390233;28;20051;-74
2020/12/19 12:15:14;;;;;;;5.03;3.03;;;;;;;10.00;91.29;100959.22;10399464;28;20151;-74
2020/12/19 12:20:18;;;;;;;8.40;3.10;;;;;;;9.93;91.93;100959.06;10373865;28;20037;-75
2020/12/19 12:25:18;;;;;;;6.40;3.20;;;;;;;10.04;91.55;100981.69;10384037;28;20049;-78
2020/12/19 12:30:19;;;;;;;6.95;3.00;;;;;;;9.99;91.26;100949.53;10396552;28;20064;-78
2020/12/19 12:35:19;;;;;;;4.75;3.05;;;;;;;9.97;92.90;100954.53;10394789;28;20840;-76
2020/12/19 12:40:20;;;;;;;5.55;2.78;;;;;;;10.04;93.16;100965.47;10395310;28;20122;-81
2020/12/19 12:45:20;;;;;;;5.88;3.10;;;;;;;10.03;93.90;100969.31;10390505;28;20058;-79
2020/12/19 12:50:21;;;;;;;6.55;2.80;;;;;;;10.06;93.83;100979.41;10364647;28;20057;-78
2020/12/19 12:55:23;;;;;;;8.98;3.13;;;;;;;10.02;94.08;100951.53;10361142;28;20110;-80
2020/12/19 13:00:24;;;;;;;8.38;3.20;;;;;;;9.86;93.54;100905.66;10381726;28;20994;-78
2020/12/19 13:05:24;;;;;;;8.05;3.95;;;;;;;9.83;95.14;100919.06;10396028;28;20069;-78
2020/12/19 13:10:25;;;;;;;7.38;3.80;;;;;;;9.99;94.31;100951.44;10389974;28;20046;-76
2020/12/19 13:15:25;;;;;;;10.88;4.72;;;;;;;9.73;94.73;100923.09;10381696;28;20417;-76
2020/12/19 13:20:26;;;;;;;5.53;2.80;;;;;;;10.01;94.85;100979.66;10383597;28;20110;-77
2020/12/19 13:25:29;;;;;;;6.90;2.85;;;;;;;9.93;94.10;100980.66;10381761;28;20100;-77
2020/12/19 13:30:30;;;;;;;5.75;3.05;;;;;;;9.85;94.47;100951.91;10376437;28;20038;-77
2020/12/19 13:35:30;;;;;;;8.15;2.83;;;;;;;9.86;93.32;100942.69;10341416;28;20123;-78
2020/12/19 13:40:31;;;;;;;6.93;3.28;;;;;;;10.18;92.91;100997.41;10372478;28;20091;-77
2020/12/19 13:45:31;;;;;;;6.05;3.00;;;;;;;9.89;93.19;100963.59;10381090;28;20041;-77
2020/12/19 13:50:32;;;;;;;4.72;2.65;;;;;;;10.08;93.68;101004.13;10395182;28;20025;-76
2020/12/19 13:55:32;;;;;;;7.00;3.50;;;;;;;10.21;92.92;101006.75;10387920;28;20038;-77
2020/12/19 14:00:33;;;;;;;5.35;3.15;;;;;;;9.87;93.71;100976.66;10381742;28;20048;-77
2020/12/19 14:05:33;;;;;;;6.43;3.28;;;;;;;9.67;94.02;100960.38;10394055;28;20120;-75
2020/12/19 14:10:34;;;;;;;20.27;11.85;;;;;;;9.79;93.51;101001.94;10394725;28;20180;-75
2020/12/19 14:15:35;;;;;;;5.38;3.10;;;;;;;10.11;93.99;101026.97;10393400;28;20598;-75
2020/12/19 14:20:36;;;;;;;5.25;3.28;;;;;;;9.90;93.97;101035.34;10375925;28;20053;-75
2020/12/19 14:25:37;;;;;;;5.38;3.20;;;;;;;10.01;93.75;101058.00;10397715;28;20041;-78
2020/12/19 14:30:42;;;;;;;8.70;4.35;;;;;;;9.97;93.69;101057.13;10406009;28;20045;-78
2020/12/19 14:35:43;;;;;;;5.63;3.33;;;;;;;9.82;93.59;101033.63;10400234;28;20049;-76
2020/12/19 14:40:43;;;;;;;7.20;3.58;;;;;;;9.65;93.62;101007.75;10387308;28;20041;-78
2020/12/19 14:45:43;;;;;;;5.85;3.03;;;;;;;9.70;93.13;101010.97;10380333;28;20065;-78
2020/12/19 14:50:44;;;;;;;7.03;3.30;;;;;;;10.13;93.07;101086.81;10396773;28;20057;-78
2020/12/19 14:55:47;;;;;;;5.93;3.00;;;;;;;9.96;92.50;101044.75;10393978;28;20053;-77
2020/12/19 15:00:47;;;;;;;10.02;4.30;;;;;;;10.09;93.03;101070.53;10402468;28;20040;-76
2020/12/19 15:05:48;;;;;;;9.30;3.65;;;;;;;10.24;93.04;101087.09;10401722;28;20071;-76
2020/12/19 15:10:48;;;;;;;9.00;3.75;;;;;;;10.26;93.14;101106.44;10398142;28;20143;-77
2020/12/19 15:15:49;;;;;;;8.02;3.47;;;;;;;10.15;92.42;101101.53;10373137;28;20049;-77
2020/12/19 15:20:53;;;;;;;6.80;3.78;;;;;;;10.20;92.98;101102.41;10382043;28;20041;-77
2020/12/19 15:25:53;;;;;;;7.40;3.95;;;;;;;10.03;92.63;101082.72;10406808;28;20068;-77
2020/12/19 15:30:54;;;;;;;11.82;5.53;;;;;;;10.18;92.37;101120.88;10375292;28;20045;-79
2020/12/19 15:35:55;;;;;;;6.25;3.70;;;;;;;10.23;92.18;101126.84;10388575;28;20050;-78
2020/12/19 15:40:58;;;;;;;9.32;4.10;;;;;;;10.06;92.29;101109.03;10407991;28;20041;-77
2020/12/19 15:45:59;;;;;;;9.80;4.75;;;;;;;10.23;92.31;101134.13;10392833;28;20274;-77
2020/12/19 15:50:59;;;;;;;9.85;4.45;;;;;;;10.26;92.29;101152.38;10371607;28;20041;-78
2020/12/19 15:56:00;;;;;;;10.63;4.15;;;;;;;10.11;91.50;101100.69;10351719;28;20046;-80
2020/12/19 16:01:00;;;;;;;8.43;4.28;;;;;;;10.12;91.67;101102.25;10345708;28;20092;-79
2020/12/19 16:06:01;;;;;;;10.35;4.30;;;;;;;10.32;91.27;101156.38;10368459;28;20089;-79
2020/12/19 16:11:02;;;;;;;9.52;4.03;;;;;;;10.12;92.52;101150.88;10374553;28;20079;-77
2020/12/19 16:16:08;;;;;;;10.63;4.50;;;;;;;9.97;92.98;101148.97;10359886;28;20383;-76
2020/12/19 16:21:12;;;;;;;9.25;4.10;;;;;;;9.88;92.40;101134.84;10377077;28;20045;-76
2020/12/19 16:26:13;;;;;;;12.15;4.68;;;;;;;9.73;92.77;101129.03;10372077;28;20370;-78
2020/12/19 16:31:13;;;;;;;8.73;3.85;;;;;;;9.71;93.01;101146.72;10366789;28;20050;-77
2020/12/19 16:36:14;;;;;;;7.80;4.40;;;;;;;9.61;92.69;101136.44;10360234;28;20096;-81
2020/12/19 16:41:18;;;;;;;10.18;4.68;;;;;;;9.77;92.58;101171.56;10383170;28;20045;-77
2020/12/19 16:46:26;;;;;;;7.40;3.40;;;;;;;9.28;92.80;101124.75;10338403;28;20046;-73
2020/12/19 16:51:35;;;;;;;10.52;4.13;;;;;;;9.62;93.15;101176.59;10369482;28;20049;-73
2020/12/19 16:56:38;;;;;;;9.70;4.20;;;;;;;9.67;92.55;101184.44;10358564;28;20053;-75
2020/12/19 17:01:41;;;;;;;9.90;4.30;;;;;;;9.52;92.29;101134.69;10369236;28;20040;-76
2020/12/19 17:06:41;;;;;;;8.52;3.88;;;;;;;9.51;91.69;101138.50;10365417;28;20069;-76
2020/12/19 17:11:42;;;;;;;11.48;4.40;;;;;;;9.76;91.39;101180.78;10368186;28;20577;-73
2020/12/19 17:16:42;;;;;;;11.50;3.88;;;;;;;9.76;91.46;101186.19;10389238;28;20136;-75
2020/12/19 17:21:43;;;;;;;13.27;5.03;;;;;;;9.32;90.86;101109.47;10371167;28;20040;-77
2020/12/19 17:26:44;;;;;;;8.75;3.83;;;;;;;9.87;90.36;101173.75;10387855;28;20045;-76
2020/12/19 17:31:44;;;;;;;9.82;3.72;;;;;;;9.78;90.86;101184.69;10360497;28;20052;-75
2020/12/19 17:36:45;;;;;;;11.25;3.78;;;;;;;9.76;90.77;101186.19;10387391;28;20052;-74
2020/12/19 17:41:46;;;;;;;10.25;4.57;;;;;;;9.79;91.40;101196.31;10343263;28;20338;-75
2020/12/19 17:46:46;;;;;;;14.38;5.45;;;;;;;9.68;91.25;101191.38;10360318;28;20041;-75
2020/12/19 17:51:47;;;;;;;8.68;3.95;;;;;;;9.58;91.61;101191.88;10384279;28;20045;-74
2020/12/19 17:56:51;;;;;;;13.40;4.57;;;;;;;9.60;91.42;101195.03;10367353;28;20056;-78
2020/12/19 18:01:53;;;;;;;13.77;5.22;;;;;;;9.64;90.97;101201.31;10377462;28;20041;-78
2020/12/19 18:06:54;;;;;;;9.02;4.28;;;;;;;9.38;91.50;101198.25;10370705;28;20124;-79
2020/12/19 18:11:55;;;;;;;13.23;4.13;;;;;;;9.50;92.22;101244.06;10365236;28;20083;-78
2020/12/19 18:16:55;;;;;;;9.45;4.00;;;;;;;9.31;91.70;101199.63;10369498;28;20967;-77
2020/12/19 18:21:57;;;;;;;7.55;3.72;;;;;;;9.17;92.14;101210.00;10380525;28;20127;-77
2020/12/19 18:26:58;;;;;;;9.67;4.53;;;;;;;9.37;92.55;101245.25;10397229;28;20046;-76
2020/12/19 18:31:59;;;;;;;10.30;4.50;;;;;;;9.21;92.54;101237.06;10379595;28;20471;-77
2020/12/19 18:37:00;;;;;;;10.55;5.22;;;;;;;9.26;93.06;101245.69;10392325;28;20044;-76
2020/12/19 18:42:00;;;;;;;12.52;5.10;;;;;;;9.21;93.04;101254.03;10386026;28;20259;-78
2020/12/19 18:47:00;;;;;;;13.32;5.72;;;;;;;9.13;93.35;101240.69;10376457;28;20161;-78
2020/12/19 18:52:01;;;;;;;13.68;5.00;;;;;;;9.16;93.66;101240.00;10373238;28;20606;-77
2020/12/19 18:57:05;;;;;;;11.60;4.70;;;;;;;9.05;93.52;101228.88;10383398;28;20072;-77
2020/12/19 19:02:08;;;;;;;14.27;4.90;;;;;;;9.14;93.66;101269.22;10386912;28;20165;-77
2020/12/19 19:07:09;;;;;;;13.52;4.82;;;;;;;9.09;93.29;101256.75;10378634;28;20792;-79
2020/12/19 19:12:09;;;;;;;12.55;4.80;;;;;;;9.17;93.80;101263.94;10394020;28;20061;-79
2020/12/19 19:17:10;;;;;;;10.50;4.72;;;;;;;9.17;93.18;101279.31;10384309;28;20512;-79
2020/12/19 19:22:10;;;;;;;13.50;5.15;;;;;;;8.75;93.51;101223.75;10373678;28;20052;-77
2020/12/19 19:27:11;;;;;;;11.73;5.38;;;;;;;9.00;93.30;101248.00;10355701;28;20038;-77
2020/12/19 19:32:11;;;;;;;18.88;5.35;;;;;;;8.99;93.23;101246.44;10385943;28;20057;-80
2020/12/19 19:37:12;;;;;;;10.07;4.30;;;;;;;9.21;93.44;101286.41;10380351;28;20029;-80
2020/12/19 19:42:12;;;;;;;13.80;5.03;;;;;;;8.94;93.91;101249.34;10371985;28;20163;-80
2020/12/19 19:47:13;;;;;;;13.48;5.18;;;;;;;9.18;93.50;101265.50;10375916;28;20056;-81
2020/12/19 19:52:14;;;;;;;14.18;5.10;;;;;;;9.25;93.93;101292.69;10375742;28;20045;-79
2020/12/19 19:57:14;;;;;;;16.17;5.50;;;;;;;9.07;94.19;101283.25;10386926;28;20050;-78
2020/12/19 20:02:15;;;;;;;11.68;6.60;;;;;;;9.03;94.00;101274.28;10374402;28;20132;-79
2020/12/19 20:07:16;;;;;;;10.40;5.60;;;;;;;8.82;93.82;101236.66;10369351;28;20057;-78
2020/12/19 20:12:18;;;;;;;15.18;6.18;;;;;;;9.11;94.42;101303.03;10325981;28;20109;-76
2020/12/19 20:17:18;;;;;;;13.70;6.20;;;;;;;8.78;94.95;101247.31;10356129;28;20046;-77
2020/12/19 20:22:21;;;;;;;14.13;6.43;;;;;;;9.00;94.99;101307.31;10347510;28;20439;-76
2020/12/19 20:27:22;;;;;;;16.15;6.80;;;;;;;8.67;94.71;101246.19;10351130;28;20042;-78
2020/12/19 20:32:23;;;;;;;13.02;6.97;;;;;;;9.01;94.71;101298.13;10318631;28;20057;-77
2020/12/19 20:37:23;;;;;;;12.57;6.03;;;;;;;8.43;95.52;101226.19;10322725;28;20074;-77
2020/12/19 20:42:24;;;;;;;13.38;6.10;;;;;;;8.88;94.95;101300.78;10329975;28;20042;-77
2020/12/19 20:47:24;;;;;;;12.68;6.00;;;;;;;8.52;95.24;101254.94;10303379;28;20042;-76
2020/12/19 20:52:25;;;;;;;15.73;5.72;;;;;;;8.63;94.97;101266.84;10332102;28;20034;-78
2020/12/19 20:57:26;;;;;;;15.88;6.03;;;;;;;8.95;94.52;101326.41;10335794;28;20811;-78
2020/12/19 21:02:27;;;;;;;13.70;5.70;;;;;;;8.71;95.17;101284.03;10320023;28;20056;-77
2020/12/19 21:07:28;;;;;;;11.93;5.03;;;;;;;8.93;94.93;101309.78;10324951;28;20081;-76
2020/12/19 21:12:28;;;;;;;16.27;5.85;;;;;;;8.91;94.70;101303.94;10369197;28;20364;-77
2020/12/19 21:17:30;;;;;;;19.35;5.10;;;;;;;8.87;95.21;101310.00;10368214;28;20526;-75
2020/12/19 21:22:31;;;;;;;19.60;5.47;;;;;;;8.79;94.97;101297.41;10346458;28;20038;-77
2020/12/19 21:27:39;;;;;;;14.13;5.07;;;;;;;8.80;94.80;101274.72;10377454;28;20762;-76
2020/12/19 21:32:42;;;;;;;14.13;6.35;;;;;;;8.79;94.60;101275.84;10374468;28;20134;-78
2020/12/19 21:37:43;;;;;;;13.23;5.57;;;;;;;8.82;95.50;101291.34;10378293;28;20132;-79
2020/12/19 21:42:43;;;;;;;14.75;5.50;;;;;;;8.81;95.59;101300.56;10343580;28;20038;-79
2020/12/19 21:47:44;;;;;;;13.75;6.55;;;;;;;8.65;95.78;101284.28;10371133;28;20042;-78
2020/12/19 21:52:45;;;;;;;17.95;7.22;;;;;;;8.78;96.42;101317.41;10342480;28;20053;-77
2020/12/19 21:57:47;;;;;;;19.33;7.78;;;;;;;8.44;96.64;101265.47;10360968;28;20529;-77
2020/12/19 22:02:48;;;;;;;15.83;5.67;;;;;;;8.69;96.24;101297.84;10369749;28;20112;-79
2020/12/19 22:07:48;;;;;;;14.32;5.82;;;;;;;8.28;96.35;101229.50;10327073;28;20981;-76
2020/12/19 22:12:49;;;;;;;16.17;6.50;;;;;;;8.11;96.62;101218.91;10388965;28;20099;-79
2020/12/19 22:17:49;;;;;;;16.80;6.47;;;;;;;8.77;96.94;101337.41;10349511;28;20041;-77
2020/12/19 22:22:50;;;;;;;11.20;6.70;;;;;;;8.41;97.69;101286.91;10390545;28;20050;-76
2020/12/19 22:27:50;;;;;;;19.02;7.10;;;;;;;8.05;97.17;101227.19;10373788;28;20157;-76
2020/12/19 22:33:10;;;;;;;16.63;7.13;;;;;;;8.66;97.92;101325.47;10374375;28;20057;-83
2020/12/19 22:38:16;;;;;;;18.98;7.68;;;;;;;8.65;97.49;101302.31;10374898;28;20504;-79
2020/12/19 22:43:17;;;;;;;14.50;6.70;;;;;;;8.65;97.74;101307.72;10363709;28;20056;-79
2020/12/19 22:48:17;;;;;;;12.68;6.00;;;;;;;8.73;97.30;101320.31;10365632;28;20061;-74
2020/12/19 22:53:18;;;;;;;14.80;5.97;;;;;;;8.70;97.91;101320.97;10383737;28;20073;-74
2020/12/19 22:58:18;;;;;;;15.15;6.18;;;;;;;8.52;97.26;101298.06;10409146;28;20037;-74
2020/12/19 23:03:19;;;;;;;14.20;6.38;;;;;;;8.56;97.32;101293.53;10395401;28;20050;-74
2020/12/19 23:08:19;;;;;;;14.15;6.53;;;;;;;8.60;97.43;101316.03;10379942;28;20425;-74
2020/12/19 23:13:22;;;;;;;20.75;6.53;;;;;;;8.66;97.61;101333.56;10364805;28;20064;-74